Airfield :
LOGIN :

Register | Disclaimer

   EN    FR    IT 

 










Legend :    VFR   Marginal VFR   IFR   Intensive IFR   Very Intensive IFR
Visi :
Ceiling :
>= 8 km
>= 3000ft
5 to 8 km
1000 to 3000 ft
1500m to 5 km
500 to 1000 ft
800 to 1500m
200 to 500 ft
< 800m
< 200 ft
Symbols :   Thunderstorms  Fog  Heavy snow  Heavy precipitations  Wind > 20 kt
SIGMETs :     Misc.  Thunderstorms  Icing  Turbulence  Mountain Waves  Volcanic Ashes







- Airport Elevation : 622 ft
- IATA code : BRS
- Download approach charts


EGGD - Bristol Int.

CURRENT METAR :
  • 230420Z AUTO 36005KT 9999 OVC024 08/06 Q1029

EXPIRED METARs :
  • 230350Z AUTO 36005KT 9999 OVC024 08/07 Q1029
  • 230320Z AUTO 35005KT 9999 OVC021 08/08 Q1029
  • 230250Z AUTO 33004KT 8000 FEW002 OVC016 08/08 Q1029 RERA
  • 230220Z AUTO 28006KT 0150 R27/0550 FG VV/// 08/08 Q1029
  • 230150Z AUTO 27007KT 0100 R27/0450 FG OVC001 09/08 Q1029
  • 230120Z AUTO 27007KT 3200 BR OVC001 08/08 Q1028

TAF AMD TAF EGGD
Valid from the 23 at 01:00 until the 24 at 00:00 UTC


230154Z 2301/2324 VRB05KT 0200 FG BKN001
BECMG 2302/2305 9999 NSW SCT035
BECMG 2306/2309 04010KT
ATIS : +44 1275 473 666
No reported NOTAMs for that airfield.



MET'MAP, your aeronautical weather chart ! - Copyright ORBIFLY December 2007 - Disclaimer

ORBIFLY MET'MAP TEAM :

Programming & Development : Alexandra Zaïnal
Concept & Development : Baudouin d'Aumeries
Co-Development & Prog : Marc-Olivier Méhu
Technical & hardware support : Manuel Goepfert

Contact : metmap@orbifly.com




SOURCES & CREDITS :

   NOAA